createdAt,value
2023-04-22T00:00:32.485Z,47.76
2023-04-22T00:03:02.108Z,47.52
2023-04-22T00:05:31.749Z,47.00
2023-04-22T00:07:59.904Z,47.27
2023-04-22T00:10:28.420Z,47.79
2023-04-22T00:12:56.438Z,47.99
2023-04-22T00:15:25.559Z,48.33
2023-04-22T00:17:54.029Z,49.23
2023-04-22T00:20:22.828Z,48.36
2023-04-22T00:22:52.485Z,48.62
2023-04-22T00:25:20.647Z,47.96
2023-04-22T00:27:48.713Z,48.71
2023-04-22T00:30:16.833Z,49.03
2023-04-22T00:32:45.046Z,48.71
2023-04-22T00:35:13.118Z,48.85
2023-04-22T00:37:41.449Z,49.23
2023-04-22T00:40:11.926Z,49.90
2023-04-22T00:42:40.521Z,49.98
2023-04-22T00:45:12.847Z,50.97
2023-04-22T00:47:41.426Z,50.68
2023-04-22T00:50:10.113Z,50.05
2023-04-22T00:52:38.211Z,50.24
2023-04-22T00:55:07.104Z,50.25
2023-04-22T00:57:37.211Z,50.31
2023-04-22T01:00:06.266Z,51.12
2023-04-22T01:02:34.688Z,51.78
2023-04-22T01:05:04.075Z,51.61
2023-04-22T01:07:32.079Z,51.10
2023-04-22T01:10:00.764Z,51.26
2023-04-22T01:12:28.837Z,51.96
2023-04-22T01:14:58.494Z,52.26
2023-04-22T01:17:26.653Z,52.67
2023-04-22T01:19:55.724Z,51.88
2023-04-22T01:22:27.404Z,52.01
2023-04-22T01:24:56.954Z,52.51
2023-04-22T01:27:25.023Z,52.03
2023-04-22T01:29:53.628Z,52.17
2023-04-22T01:32:21.822Z,53.95
2023-04-22T01:34:50.427Z,53.40
2023-04-22T01:37:20.039Z,54.44
2023-04-22T01:39:48.927Z,53.87
2023-04-22T01:42:18.804Z,53.23
2023-04-22T01:44:47.299Z,52.54
2023-04-22T01:47:15.808Z,52.20
2023-04-22T01:49:43.880Z,51.95
2023-04-22T01:52:13.897Z,52.42
2023-04-22T01:54:42.420Z,52.19
2023-04-22T01:57:16.406Z,52.42
2023-04-22T01:59:46.366Z,52.26
2023-04-22T02:02:16.184Z,52.34
2023-04-22T02:04:44.378Z,52.58
2023-04-22T02:07:12.495Z,52.30
2023-04-22T02:09:40.737Z,51.63
2023-04-22T02:12:09.190Z,51.48
2023-04-22T02:14:37.225Z,52.21
2023-04-22T02:17:06.687Z,55.21
2023-04-22T02:19:34.795Z,55.29
2023-04-22T02:22:03.015Z,54.51
2023-04-22T02:24:31.619Z,55.96
2023-04-22T02:27:00.332Z,57.93
2023-04-22T02:29:29.397Z,57.83
2023-04-22T02:31:59.980Z,59.07
2023-04-22T02:34:29.686Z,58.59
2023-04-22T02:36:57.730Z,57.83
2023-04-22T02:39:26.545Z,58.02
2023-04-22T02:41:54.688Z,58.78
2023-04-22T02:44:22.850Z,59.66
2023-04-22T02:46:50.943Z,60.29
2023-04-22T02:49:19.415Z,60.51
2023-04-22T02:51:48.822Z,60.17
2023-04-22T02:54:16.975Z,61.49
2023-04-22T02:56:45.031Z,61.84
2023-04-22T02:59:13.020Z,62.54
2023-04-22T03:01:41.206Z,62.29
2023-04-22T03:04:14.387Z,61.96
2023-04-22T03:06:42.768Z,61.33
2023-04-22T03:09:12.345Z,60.76
2023-04-22T03:11:40.506Z,59.96
2023-04-22T03:14:08.514Z,59.00
2023-04-22T03:16:36.700Z,59.02
2023-04-22T03:19:06.651Z,58.31
2023-04-22T03:21:34.738Z,56.62
2023-04-22T03:24:03.415Z,55.81
2023-04-22T03:26:35.702Z,56.18
2023-04-22T03:29:05.043Z,55.71
2023-04-22T03:31:33.229Z,55.76
2023-04-22T03:34:01.377Z,56.22
2023-04-22T03:36:32.089Z,57.78
2023-04-22T03:39:00.202Z,57.78
2023-04-22T03:41:29.863Z,57.70
2023-04-22T03:44:01.620Z,57.40
2023-04-22T03:46:31.470Z,58.05
2023-04-22T03:49:13.548Z,58.48
2023-04-22T03:51:41.777Z,59.17
2023-04-22T03:54:13.894Z,59.31
2023-04-22T03:56:48.486Z,60.63
2023-04-22T03:59:19.010Z,60.89
2023-04-22T04:01:48.255Z,60.68
2023-04-22T04:04:20.550Z,60.37
2023-04-22T04:06:54.225Z,60.15
2023-04-22T04:09:22.461Z,59.16
2023-04-22T04:11:50.473Z,57.91
2023-04-22T04:14:20.611Z,56.37
2023-04-22T04:16:51.467Z,56.99
2023-04-22T04:19:28.489Z,60.75
2023-04-22T04:21:57.158Z,60.88
2023-04-22T04:24:28.432Z,61.16
2023-04-22T04:27:03.281Z,60.97
2023-04-22T04:29:39.838Z,61.63
2023-04-22T04:32:14.307Z,63.56
2023-04-22T04:34:43.750Z,64.56
2023-04-22T04:37:12.774Z,64.82
2023-04-22T04:40:04.605Z,64.72
2023-04-22T04:42:43.804Z,63.68
2023-04-22T04:45:19.320Z,62.00
2023-04-22T04:47:50.826Z,62.31
2023-04-22T04:50:24.123Z,60.33
2023-04-22T04:52:53.009Z,59.89
2023-04-22T04:55:26.590Z,58.23
2023-04-22T04:57:55.588Z,58.26
2023-04-22T05:00:25.261Z,58.19
2023-04-22T05:02:53.717Z,58.39
2023-04-22T05:05:21.849Z,58.61
2023-04-22T05:07:51.768Z,58.87
2023-04-22T05:10:20.342Z,59.14
2023-04-22T05:12:48.747Z,59.07
2023-04-22T05:15:22.054Z,58.81
2023-04-22T05:17:51.612Z,58.60
2023-04-22T05:20:19.724Z,58.71
2023-04-22T05:22:47.861Z,58.40
2023-04-22T05:25:16.961Z,58.25
2023-04-22T05:27:54.121Z,57.76
2023-04-22T05:30:23.120Z,57.34
2023-04-22T05:32:52.494Z,57.16
2023-04-22T05:35:20.782Z,56.77
2023-04-22T05:37:48.875Z,57.38
2023-04-22T05:40:17.036Z,58.73
2023-04-22T05:42:45.190Z,58.92
2023-04-22T05:45:13.587Z,58.05
2023-04-22T05:47:41.765Z,57.66
2023-04-22T05:50:11.953Z,56.54
2023-04-22T05:52:55.542Z,57.66
2023-04-22T05:55:23.669Z,58.77
2023-04-22T05:57:51.874Z,58.45
2023-04-22T06:00:38.034Z,57.17
2023-04-22T06:03:26.581Z,57.37
2023-04-22T06:05:56.384Z,57.75
2023-04-22T06:08:24.801Z,57.28
2023-04-22T06:10:52.791Z,56.77
2023-04-22T06:13:22.083Z,56.44
2023-04-22T06:15:50.489Z,57.04
2023-04-22T06:18:18.654Z,56.24
2023-04-22T06:20:47.039Z,55.85
2023-04-22T06:23:16.575Z,55.21
2023-04-22T06:25:44.862Z,55.04
2023-04-22T06:28:13.040Z,55.11
2023-04-22T06:30:41.976Z,54.59
2023-04-22T06:33:10.154Z,54.31
2023-04-22T06:35:38.664Z,54.50
2023-04-22T06:38:06.907Z,54.21
2023-04-22T06:40:44.104Z,52.79
2023-04-22T06:43:22.458Z,53.00
2023-04-22T06:46:11.217Z,51.98
2023-04-22T06:48:58.184Z,51.51
2023-04-22T06:51:46.582Z,50.51
2023-04-22T06:54:14.901Z,50.90
2023-04-22T06:56:44.468Z,50.24
2023-04-22T06:59:12.595Z,50.12
2023-04-22T07:01:41.075Z,50.23
2023-04-22T07:04:09.292Z,49.74
2023-04-22T07:06:37.430Z,48.75
2023-04-22T07:09:05.605Z,48.43
2023-04-22T07:11:34.225Z,47.79
2023-04-22T07:14:11.992Z,47.27
2023-04-22T07:16:40.218Z,47.23
2023-04-22T07:19:08.272Z,46.70
2023-04-22T07:21:36.404Z,46.37
2023-04-22T07:24:04.457Z,46.44
2023-04-22T07:26:34.484Z,45.72
2023-04-22T07:29:02.595Z,45.43
2023-04-22T07:31:32.054Z,45.39
2023-04-22T07:34:00.135Z,45.07
2023-04-22T07:36:28.191Z,44.99
2023-04-22T07:38:56.406Z,44.49
2023-04-22T07:41:24.656Z,44.14
2023-04-22T07:43:52.989Z,43.80
2023-04-22T07:46:21.269Z,43.65
2023-04-22T07:48:50.733Z,44.03
2023-04-22T07:51:18.783Z,43.46
2023-04-22T07:53:46.863Z,43.46
2023-04-22T07:56:15.056Z,43.50
2023-04-22T07:58:43.093Z,43.09
2023-04-22T08:01:11.141Z,42.84
2023-04-22T08:03:39.395Z,42.54
2023-04-22T08:06:09.281Z,42.72
2023-04-22T08:08:37.390Z,43.00
2023-04-22T08:11:05.838Z,42.39
2023-04-22T08:13:33.907Z,41.74
2023-04-22T08:16:03.228Z,41.38
2023-04-22T08:18:31.421Z,40.45
2023-04-22T08:20:59.861Z,39.98
2023-04-22T08:23:29.225Z,39.85
2023-04-22T08:25:57.352Z,39.19
2023-04-22T08:28:25.447Z,40.19
2023-04-22T08:30:53.582Z,39.69
2023-04-22T08:33:21.692Z,39.57
2023-04-22T08:35:49.811Z,38.85
2023-04-22T08:38:17.833Z,38.28
2023-04-22T08:40:47.849Z,38.46
2023-04-22T08:43:16.236Z,39.08
2023-04-22T08:45:44.487Z,38.90
2023-04-22T08:48:13.865Z,36.89
2023-04-22T08:50:42.511Z,37.11
2023-04-22T08:53:10.607Z,38.34
2023-04-22T08:55:39.295Z,37.86
2023-04-22T08:58:08.914Z,37.24
2023-04-22T09:00:37.014Z,38.42
2023-04-22T09:03:07.945Z,37.71
2023-04-22T09:05:38.605Z,37.33
2023-04-22T09:08:07.914Z,36.69
2023-04-22T09:10:38.523Z,35.18
2023-04-22T09:13:09.364Z,34.63
2023-04-22T09:15:37.550Z,34.81
2023-04-22T09:18:06.114Z,34.63
2023-04-22T09:20:34.108Z,34.73
2023-04-22T09:23:05.506Z,34.72
2023-04-22T09:25:35.667Z,35.14
2023-04-22T09:28:03.692Z,35.18
2023-04-22T09:30:35.937Z,35.48
2023-04-22T09:33:06.009Z,34.70
2023-04-22T09:35:35.410Z,34.52
2023-04-22T09:38:06.395Z,34.81
2023-04-22T09:40:35.061Z,34.26
2023-04-22T09:43:04.886Z,34.73
2023-04-22T09:45:36.538Z,34.75
2023-04-22T09:48:09.847Z,34.87
2023-04-22T09:50:39.104Z,34.46
2023-04-22T09:53:09.053Z,34.79
2023-04-22T09:55:41.439Z,33.82
2023-04-22T09:58:12.316Z,33.42
2023-04-22T10:00:48.785Z,33.78
2023-04-22T10:03:17.905Z,33.14
2023-04-22T10:05:46.468Z,33.26
2023-04-22T10:08:16.921Z,32.68
2023-04-22T10:10:47.419Z,32.88
2023-04-22T10:13:15.880Z,33.14
2023-04-22T10:15:50.641Z,33.12
2023-04-22T10:18:22.902Z,32.93
2023-04-22T10:20:52.349Z,33.12
2023-04-22T10:23:23.637Z,34.03
2023-04-22T10:25:55.049Z,33.82
2023-04-22T10:28:24.895Z,33.68
2023-04-22T10:30:55.110Z,34.46
2023-04-22T10:33:40.113Z,34.38
2023-04-22T10:36:10.832Z,33.91
2023-04-22T10:38:40.627Z,33.58
2023-04-22T10:41:14.354Z,34.59
2023-04-22T10:43:43.334Z,33.52
2023-04-22T10:46:53.190Z,33.65
2023-04-22T10:49:24.495Z,33.57
2023-04-22T10:51:53.893Z,33.67
2023-04-22T10:55:00.688Z,33.01
2023-04-22T10:57:42.930Z,34.66
2023-04-22T11:03:11.980Z,34.96
2023-04-22T11:05:42.099Z,34.35
2023-04-22T11:08:14.376Z,33.95
2023-04-22T11:10:45.038Z,33.92
2023-04-22T11:13:15.996Z,34.32
2023-04-22T11:15:45.947Z,34.07
2023-04-22T11:18:20.869Z,34.07
2023-04-22T11:20:51.427Z,33.92
2023-04-22T11:23:22.163Z,33.94
2023-04-22T11:25:55.905Z,33.32
2023-04-22T11:28:24.284Z,33.96
2023-04-22T11:30:52.785Z,33.79
2023-04-22T11:33:21.717Z,34.28
2023-04-22T11:35:52.694Z,34.47
2023-04-22T11:38:20.666Z,36.34
2023-04-22T11:40:49.115Z,36.34
2023-04-22T11:43:18.726Z,35.72
2023-04-22T11:45:47.171Z,35.15
2023-04-22T11:48:16.717Z,35.07
2023-04-22T11:50:45.580Z,34.18
2023-04-22T11:53:19.478Z,34.10
2023-04-22T11:55:51.327Z,34.78
2023-04-22T11:58:21.557Z,33.31
2023-04-22T12:00:51.657Z,32.70
2023-04-22T12:03:21.353Z,32.04
2023-04-22T12:05:54.290Z,31.84
2023-04-22T12:08:26.100Z,31.74
2023-04-22T12:10:55.976Z,31.42
2023-04-22T12:13:25.986Z,30.85
2023-04-22T12:15:55.655Z,29.75
2023-04-22T12:18:30.781Z,30.21
2023-04-22T12:21:01.218Z,28.87
2023-04-22T12:23:30.610Z,28.46
2023-04-22T12:25:58.864Z,29.26
2023-04-22T12:28:26.863Z,28.78
2023-04-22T12:30:54.990Z,28.60
2023-04-22T12:33:23.073Z,29.02
2023-04-22T12:35:52.705Z,28.42
2023-04-22T12:38:21.294Z,29.18
2023-04-22T12:40:51.130Z,29.13
2023-04-22T12:43:26.091Z,29.35
2023-04-22T12:45:54.264Z,28.75
2023-04-22T12:48:22.299Z,28.27
2023-04-22T12:50:50.346Z,28.03
2023-04-22T12:53:18.467Z,27.62
2023-04-22T12:55:46.596Z,27.86
2023-04-22T12:58:16.152Z,27.72
2023-04-22T13:00:44.281Z,27.27
2023-04-22T13:03:12.552Z,27.71
2023-04-22T13:05:40.818Z,27.47
2023-04-22T13:08:08.893Z,27.21
2023-04-22T13:10:37.087Z,27.54
2023-04-22T13:13:17.755Z,27.91
2023-04-22T13:15:53.341Z,27.89
2023-04-22T13:18:22.851Z,28.14
2023-04-22T13:20:51.329Z,28.50
2023-04-22T13:23:21.857Z,28.06
2023-04-22T13:25:50.667Z,27.89
2023-04-22T13:28:18.676Z,29.80
2023-04-22T13:30:48.406Z,28.61
2023-04-22T13:33:16.476Z,28.45
2023-04-22T13:35:44.597Z,27.54
2023-04-22T13:38:12.640Z,28.65
2023-04-22T13:40:40.810Z,28.00
2023-04-22T13:43:09.813Z,27.87
2023-04-22T13:45:38.142Z,28.05
2023-04-22T13:48:07.757Z,27.74
2023-04-22T13:50:35.835Z,27.25
2023-04-22T13:53:04.917Z,27.35
2023-04-22T13:55:33.006Z,27.21
2023-04-22T13:58:01.274Z,27.05
2023-04-22T14:00:29.711Z,27.30
2023-04-22T14:02:58.107Z,27.43
2023-04-22T14:05:27.865Z,27.33
2023-04-22T14:07:55.955Z,27.48
2023-04-22T14:10:25.612Z,27.36
2023-04-22T14:12:55.371Z,27.45
2023-04-22T14:15:23.391Z,27.24
2023-04-22T14:17:51.394Z,28.89
2023-04-22T14:20:19.633Z,30.18
2023-04-22T14:22:49.063Z,29.38
2023-04-22T14:25:17.169Z,28.99
2023-04-22T14:27:45.191Z,28.49
2023-04-22T14:30:14.808Z,28.40
2023-04-22T14:32:42.962Z,27.28
2023-04-22T14:35:11.683Z,27.53
2023-04-22T14:37:41.490Z,27.59
2023-04-22T14:40:13.273Z,27.26
2023-04-22T14:42:42.118Z,27.62
2023-04-22T14:45:11.034Z,27.06
2023-04-22T14:47:39.269Z,27.27
2023-04-22T14:50:08.247Z,27.20
2023-04-22T14:52:36.397Z,26.76
2023-04-22T14:55:15.535Z,26.42
2023-04-22T14:57:53.348Z,26.49
2023-04-22T15:00:21.895Z,26.48
2023-04-22T15:02:50.331Z,26.15
2023-04-22T15:05:18.546Z,26.10
2023-04-22T15:07:46.661Z,26.41
2023-04-22T15:10:16.813Z,26.70
2023-04-22T15:12:45.638Z,27.47
2023-04-22T15:15:16.223Z,27.33
2023-04-22T15:17:44.987Z,27.35
2023-04-22T15:20:14.255Z,26.61
2023-04-22T15:22:42.435Z,27.31
2023-04-22T15:25:11.581Z,26.81
2023-04-22T15:27:40.499Z,26.68
2023-04-22T15:30:10.918Z,27.20
2023-04-22T15:32:40.790Z,26.89
2023-04-22T15:35:09.675Z,26.45
2023-04-22T15:37:37.830Z,27.19
2023-04-22T15:40:07.730Z,27.41
2023-04-22T15:42:36.055Z,27.38
2023-04-22T15:45:04.508Z,27.09
2023-04-22T15:47:32.816Z,26.74
2023-04-22T15:50:06.630Z,26.67
2023-04-22T15:52:35.012Z,26.81
2023-04-22T15:55:03.087Z,27.07
2023-04-22T15:57:34.752Z,27.13
2023-04-22T16:00:11.733Z,27.12
2023-04-22T16:02:43.710Z,27.40
2023-04-22T16:05:14.693Z,26.77
2023-04-22T16:07:43.085Z,27.16
2023-04-22T16:10:12.113Z,27.39
2023-04-22T16:12:40.183Z,27.33
2023-04-22T16:15:09.672Z,27.49
2023-04-22T16:17:38.396Z,27.84
2023-04-22T16:20:07.916Z,27.21
2023-04-22T16:22:37.524Z,27.22
2023-04-22T16:25:06.515Z,28.10
2023-04-22T16:27:34.588Z,27.90
2023-04-22T16:30:02.701Z,28.20
2023-04-22T16:32:30.947Z,28.17
2023-04-22T16:34:59.074Z,27.92
2023-04-22T16:37:27.368Z,27.88
2023-04-22T16:39:56.774Z,28.02
2023-04-22T16:42:24.927Z,27.86
2023-04-22T16:44:57.915Z,28.25
2023-04-22T16:47:27.055Z,28.34
2023-04-22T16:49:55.168Z,28.69
2023-04-22T16:52:23.194Z,29.05
2023-04-22T16:54:51.584Z,29.50
2023-04-22T16:57:21.047Z,29.83
2023-04-22T16:59:49.164Z,29.49
2023-04-22T17:02:17.328Z,30.38
2023-04-22T17:04:45.491Z,30.27
2023-04-22T17:07:13.513Z,30.36
2023-04-22T17:09:41.884Z,30.70
2023-04-22T17:12:10.602Z,30.80
2023-04-22T17:14:40.164Z,30.86
2023-04-22T17:17:08.285Z,31.00
2023-04-22T17:19:36.540Z,31.23
2023-04-22T17:22:04.718Z,31.17
2023-04-22T17:24:32.810Z,31.90
2023-04-22T17:27:01.738Z,31.94
2023-04-22T17:29:29.754Z,32.38
2023-04-22T17:31:59.213Z,32.81
2023-04-22T17:34:27.949Z,33.21
2023-04-22T17:36:55.933Z,33.46
2023-04-22T17:39:24.141Z,33.80
2023-04-22T17:41:52.265Z,34.34
2023-04-22T17:44:20.517Z,34.44
2023-04-22T17:46:48.581Z,34.89
2023-04-22T17:49:17.995Z,35.44
2023-04-22T17:51:46.148Z,35.03
2023-04-22T17:54:14.256Z,35.34
2023-04-22T17:56:42.358Z,35.87
2023-04-22T17:59:11.408Z,36.12
2023-04-22T18:01:39.981Z,36.42
2023-04-22T18:04:08.311Z,36.75
2023-04-22T18:06:38.033Z,36.75
2023-04-22T18:09:06.281Z,37.13
2023-04-22T18:11:34.330Z,36.97
2023-04-22T18:14:02.540Z,37.22
2023-04-22T18:16:30.722Z,37.50
2023-04-22T18:18:59.856Z,37.51
2023-04-22T18:21:29.374Z,38.02
2023-04-22T18:23:59.230Z,38.08
2023-04-22T18:26:27.540Z,38.00
2023-04-22T18:28:55.609Z,37.82
2023-04-22T18:31:23.782Z,37.80
2023-04-22T18:33:51.800Z,38.13
2023-04-22T18:36:19.970Z,38.19
2023-04-22T18:38:48.044Z,38.32
2023-04-22T18:41:17.462Z,38.43
2023-04-22T18:43:47.168Z,38.87
2023-04-22T18:46:15.301Z,39.08
2023-04-22T18:48:43.586Z,38.97
2023-04-22T18:51:12.388Z,39.16
2023-04-22T18:53:40.423Z,39.43
2023-04-22T18:56:08.519Z,39.90
2023-04-22T18:58:37.927Z,39.27
2023-04-22T19:01:06.559Z,39.10
2023-04-22T19:03:34.827Z,39.24
2023-04-22T19:06:02.963Z,39.40
2023-04-22T19:08:31.115Z,39.75
2023-04-22T19:10:59.422Z,39.95
2023-04-22T19:13:29.582Z,40.21
2023-04-22T19:16:00.007Z,40.30
2023-04-22T19:18:28.292Z,39.84
2023-04-22T19:20:56.324Z,39.33
2023-04-22T19:23:24.407Z,39.65
2023-04-22T19:25:53.217Z,39.46
2023-04-22T19:28:21.332Z,39.69
2023-04-22T19:30:49.389Z,39.61
2023-04-22T19:33:19.074Z,39.82
2023-04-22T19:35:47.324Z,39.86
2023-04-22T19:38:19.071Z,39.83
2023-04-22T19:40:47.459Z,39.90
2023-04-22T19:43:17.162Z,40.54
2023-04-22T19:45:45.503Z,40.45
2023-04-22T19:48:14.020Z,40.32
2023-04-22T19:50:44.854Z,40.20
2023-04-22T19:53:13.868Z,40.16
2023-04-22T19:55:44.204Z,40.16
2023-04-22T19:58:12.425Z,40.38
2023-04-22T20:00:42.554Z,40.04
2023-04-22T20:03:13.112Z,40.12
2023-04-22T20:05:44.317Z,40.29
2023-04-22T20:08:14.750Z,40.19
2023-04-22T20:10:44.363Z,40.43
2023-04-22T20:13:12.494Z,40.29
2023-04-22T20:15:40.856Z,40.60
2023-04-22T20:18:09.553Z,40.79
2023-04-22T20:20:38.854Z,40.72
2023-04-22T20:23:10.569Z,41.09
2023-04-22T20:25:42.650Z,41.11
2023-04-22T20:28:11.934Z,41.46
2023-04-22T20:30:40.929Z,41.93
2023-04-22T20:33:12.204Z,41.31
2023-04-22T20:35:41.166Z,41.37
2023-04-22T20:38:13.436Z,41.19
2023-04-22T20:40:42.212Z,41.75
2023-04-22T20:43:10.796Z,41.49
2023-04-22T20:45:39.040Z,41.85
2023-04-22T20:48:07.178Z,41.63
2023-04-22T20:50:35.309Z,41.67
2023-04-22T20:53:05.249Z,41.98
2023-04-22T20:55:36.858Z,42.13
2023-04-22T20:58:05.380Z,41.84
2023-04-22T21:00:33.504Z,42.54
2023-04-22T21:03:02.496Z,42.70
2023-04-22T21:05:30.884Z,42.33
2023-04-22T21:08:01.836Z,42.30
2023-04-22T21:10:30.775Z,42.69
2023-04-22T21:13:00.488Z,42.66
2023-04-22T21:15:29.605Z,42.51
2023-04-22T21:17:59.585Z,42.93
2023-04-22T21:20:30.879Z,42.66
2023-04-22T21:22:59.766Z,42.94
2023-04-22T21:25:30.000Z,42.37
2023-04-22T21:27:58.658Z,42.78
2023-04-22T21:30:28.732Z,42.99
2023-04-22T21:32:56.813Z,42.88
2023-04-22T21:35:25.664Z,43.24
2023-04-22T21:37:54.184Z,43.13
2023-04-22T21:40:22.350Z,43.41
2023-04-22T21:42:50.573Z,43.55
2023-04-22T21:45:18.797Z,44.05
2023-04-22T21:47:48.418Z,43.87
2023-04-22T21:50:17.254Z,43.98
2023-04-22T21:52:46.136Z,44.17
2023-04-22T21:55:14.177Z,44.14
2023-04-22T21:57:42.226Z,44.05
2023-04-22T22:00:15.479Z,44.18
2023-04-22T22:02:43.859Z,44.46
2023-04-22T22:05:14.921Z,44.39
2023-04-22T22:07:45.142Z,44.21
2023-04-22T22:10:15.413Z,44.91
2023-04-22T22:12:43.531Z,45.06
2023-04-22T22:15:12.579Z,45.59
2023-04-22T22:17:40.730Z,45.35
2023-04-22T22:20:12.260Z,45.63
2023-04-22T22:22:42.198Z,45.43
2023-04-22T22:25:11.981Z,46.65
2023-04-22T22:27:41.842Z,46.86
2023-04-22T22:30:10.687Z,46.79
2023-04-22T22:32:38.837Z,47.16
2023-04-22T22:35:07.980Z,47.48
2023-04-22T22:37:36.492Z,47.00
2023-04-22T22:40:07.166Z,47.12
2023-04-22T22:42:36.196Z,46.93
2023-04-22T22:45:05.281Z,46.83
2023-04-22T22:47:33.604Z,47.22
2023-04-22T22:50:01.778Z,47.24
2023-04-22T22:52:30.794Z,47.50
2023-04-22T22:54:58.832Z,47.50
2023-04-22T22:57:28.272Z,47.45
2023-04-22T22:59:56.303Z,47.84
2023-04-22T23:02:24.546Z,48.24
2023-04-22T23:04:53.968Z,48.39
2023-04-22T23:07:22.449Z,48.78
2023-04-22T23:09:50.558Z,48.27
2023-04-22T23:12:18.597Z,48.78
2023-04-22T23:14:48.012Z,48.79
2023-04-22T23:17:17.394Z,49.00
2023-04-22T23:19:46.463Z,48.93
2023-04-22T23:22:15.362Z,48.95
2023-04-22T23:24:44.005Z,49.05
2023-04-22T23:27:12.572Z,49.43
2023-04-22T23:29:42.199Z,49.33
2023-04-22T23:32:16.317Z,49.77
2023-04-22T23:34:47.019Z,49.98
2023-04-22T23:37:16.287Z,50.06
2023-04-22T23:39:44.464Z,50.47
2023-04-22T23:42:12.528Z,50.43
2023-04-22T23:44:40.668Z,50.33
2023-04-22T23:47:08.865Z,50.18
2023-04-22T23:49:38.365Z,51.04
2023-04-22T23:52:08.050Z,50.57
2023-04-22T23:54:36.534Z,50.94
2023-04-22T23:57:05.098Z,51.23
2023-04-22T23:59:33.833Z,51.48
